createdAt,value
2023-04-09T00:02:19.881Z,7.32
2023-04-09T00:04:46.988Z,7.31
2023-04-09T00:07:14.071Z,7.32
2023-04-09T00:09:40.853Z,7.33
2023-04-09T00:12:07.661Z,7.34
2023-04-09T00:14:34.650Z,7.29
2023-04-09T00:17:01.546Z,7.25
2023-04-09T00:19:28.498Z,7.29
2023-04-09T00:21:55.420Z,7.29
2023-04-09T00:24:22.307Z,7.34
2023-04-09T00:26:49.834Z,7.33
2023-04-09T00:29:16.990Z,7.29
2023-04-09T00:31:44.206Z,7.31
2023-04-09T00:34:11.810Z,7.30
2023-04-09T00:36:38.628Z,7.34
2023-04-09T00:39:05.476Z,7.33
2023-04-09T00:41:32.733Z,7.38
2023-04-09T00:43:59.556Z,7.43
2023-04-09T00:46:26.498Z,7.34
2023-04-09T00:48:53.695Z,7.32
2023-04-09T00:51:20.735Z,7.36
2023-04-09T00:53:48.207Z,7.32
2023-04-09T00:56:16.166Z,7.29
2023-04-09T00:58:43.087Z,7.30
2023-04-09T01:01:09.968Z,7.30
2023-04-09T01:03:37.039Z,7.28
2023-04-09T01:06:23.172Z,7.26
2023-04-09T01:09:15.643Z,7.22
2023-04-09T01:11:45.734Z,7.19
2023-04-09T01:14:19.010Z,7.16
2023-04-09T01:16:48.359Z,7.17
2023-04-09T01:19:24.729Z,7.16
2023-04-09T01:21:53.145Z,7.12
2023-04-09T01:24:29.227Z,7.09
2023-04-09T01:26:59.185Z,7.08
2023-04-09T01:29:33.984Z,7.10
2023-04-09T01:32:02.433Z,7.21
2023-04-09T01:34:30.679Z,7.25
2023-04-09T01:36:58.810Z,7.29
2023-04-09T01:39:26.632Z,7.32
2023-04-09T01:41:53.948Z,7.28
2023-04-09T01:44:20.935Z,7.24
2023-04-09T01:46:48.717Z,7.18
2023-04-09T01:49:16.077Z,7.12
2023-04-09T01:51:43.549Z,7.15
2023-04-09T01:54:10.616Z,7.21
2023-04-09T01:56:44.638Z,7.21
2023-04-09T01:59:12.249Z,7.12
2023-04-09T02:02:00.014Z,7.09
2023-04-09T02:04:39.134Z,7.07
2023-04-09T02:07:24.900Z,7.08
2023-04-09T02:09:53.376Z,7.09
2023-04-09T02:12:21.824Z,7.12
2023-04-09T02:14:51.323Z,7.15
2023-04-09T02:17:18.813Z,7.17
2023-04-09T02:19:46.632Z,7.24
2023-04-09T02:22:14.691Z,7.24
2023-04-09T02:24:41.763Z,7.14
2023-04-09T02:27:08.817Z,7.14
2023-04-09T02:29:36.141Z,7.12
2023-04-09T02:32:03.181Z,7.12
2023-04-09T02:34:30.046Z,7.10
2023-04-09T02:36:56.947Z,7.11
2023-04-09T02:39:23.784Z,7.15
2023-04-09T02:41:50.705Z,7.19
2023-04-09T02:44:17.667Z,7.16
2023-04-09T02:46:45.067Z,7.16
2023-04-09T02:49:12.116Z,7.15
2023-04-09T02:51:38.934Z,7.15
2023-04-09T02:54:05.904Z,7.15
2023-04-09T02:56:33.079Z,7.13
2023-04-09T02:58:59.925Z,7.02
2023-04-09T03:01:26.913Z,6.91
2023-04-09T03:03:54.055Z,6.90
2023-04-09T03:06:21.083Z,6.89
2023-04-09T03:08:47.926Z,6.83
2023-04-09T03:11:14.855Z,6.84
2023-04-09T03:13:41.815Z,6.82
2023-04-09T03:16:10.362Z,6.78
2023-04-09T03:18:37.363Z,6.77
2023-04-09T03:21:10.868Z,6.79
2023-04-09T03:23:45.910Z,6.83
2023-04-09T03:26:12.943Z,6.84
2023-04-09T03:28:46.931Z,6.89
2023-04-09T03:31:14.260Z,6.90
2023-04-09T03:33:43.169Z,6.88
2023-04-09T03:36:11.020Z,6.90
2023-04-09T03:39:01.069Z,6.87
2023-04-09T03:41:34.678Z,6.82
2023-04-09T03:44:05.297Z,6.76
2023-04-09T03:46:45.762Z,6.80
2023-04-09T03:49:16.072Z,6.76
2023-04-09T03:51:44.860Z,6.77
2023-04-09T03:54:12.362Z,6.76
2023-04-09T03:56:40.358Z,6.72
2023-04-09T03:59:10.470Z,6.69
2023-04-09T04:01:40.725Z,6.68
2023-04-09T04:04:07.693Z,6.74
2023-04-09T04:06:51.797Z,6.85
2023-04-09T04:09:39.098Z,6.94
2023-04-09T04:12:11.510Z,7.01
2023-04-09T04:14:49.835Z,7.06
2023-04-09T04:17:32.691Z,7.09
2023-04-09T04:20:01.980Z,7.11
2023-04-09T04:22:33.889Z,7.15
2023-04-09T04:25:01.037Z,7.11
2023-04-09T04:27:31.450Z,7.11
2023-04-09T04:29:59.080Z,7.12
2023-04-09T04:32:37.970Z,7.11
2023-04-09T04:35:09.453Z,7.15
2023-04-09T04:37:37.212Z,7.19
2023-04-09T04:40:05.764Z,7.26
2023-04-09T04:42:37.166Z,7.27
2023-04-09T04:45:10.469Z,7.25
2023-04-09T04:47:48.425Z,7.32
2023-04-09T04:50:15.271Z,7.32
2023-04-09T04:52:56.505Z,7.28
2023-04-09T04:55:28.695Z,7.26
2023-04-09T04:57:56.308Z,7.32
2023-04-09T05:00:26.672Z,7.38
2023-04-09T05:02:55.328Z,7.45
2023-04-09T05:05:26.488Z,7.51
2023-04-09T05:08:16.678Z,7.47
2023-04-09T05:10:44.271Z,7.54
2023-04-09T05:13:13.484Z,7.63
2023-04-09T05:15:41.870Z,7.75
2023-04-09T05:18:09.965Z,7.88
2023-04-09T05:20:37.327Z,7.97
2023-04-09T05:23:10.550Z,8.11
2023-04-09T05:25:43.820Z,8.32
2023-04-09T05:28:19.909Z,8.49
2023-04-09T05:30:52.051Z,8.66
2023-04-09T05:33:20.758Z,8.77
2023-04-09T05:35:47.800Z,8.86
2023-04-09T05:38:14.782Z,8.92
2023-04-09T05:40:45.884Z,9.05
2023-04-09T05:43:13.932Z,9.16
2023-04-09T05:45:43.618Z,9.31
2023-04-09T05:48:10.770Z,9.51
2023-04-09T05:50:51.614Z,9.61
2023-04-09T05:53:40.694Z,9.77
2023-04-09T05:56:15.125Z,9.76
2023-04-09T05:58:49.657Z,9.86
2023-04-09T06:01:17.357Z,9.91
2023-04-09T06:03:44.689Z,10.01
2023-04-09T06:06:11.697Z,10.02
2023-04-09T06:08:38.626Z,10.07
2023-04-09T06:11:09.290Z,10.19
2023-04-09T06:13:36.159Z,10.37
2023-04-09T06:16:06.985Z,10.53
2023-04-09T06:18:34.721Z,10.64
2023-04-09T06:21:02.649Z,10.76
2023-04-09T06:23:29.550Z,10.97
2023-04-09T06:25:56.567Z,11.04
2023-04-09T06:28:23.785Z,11.09
2023-04-09T06:30:54.767Z,11.18
2023-04-09T06:33:21.970Z,11.18
2023-04-09T06:35:49.320Z,11.16
2023-04-09T06:38:16.459Z,11.19
2023-04-09T06:40:44.075Z,11.24
2023-04-09T06:43:11.007Z,11.25
2023-04-09T06:45:49.064Z,11.36
2023-04-09T06:48:16.045Z,11.33
2023-04-09T06:50:43.023Z,11.41
2023-04-09T06:53:10.118Z,11.42
2023-04-09T06:55:37.002Z,11.43
2023-04-09T06:58:03.911Z,11.48
2023-04-09T07:00:31.196Z,11.46
2023-04-09T07:02:58.388Z,11.44
2023-04-09T07:05:25.543Z,11.51
2023-04-09T07:07:52.386Z,11.50
2023-04-09T07:10:19.346Z,11.48
2023-04-09T07:12:46.271Z,11.50
2023-04-09T07:15:13.194Z,11.62
2023-04-09T07:17:40.574Z,11.73
2023-04-09T07:20:07.758Z,11.72
2023-04-09T07:22:36.416Z,11.81
2023-04-09T07:25:03.298Z,11.91
2023-04-09T07:27:30.341Z,11.98
2023-04-09T07:29:58.164Z,12.10
2023-04-09T07:32:26.371Z,12.08
2023-04-09T07:34:53.696Z,12.24
2023-04-09T07:37:20.866Z,12.29
2023-04-09T07:39:48.056Z,12.28
2023-04-09T07:42:14.932Z,12.30
2023-04-09T07:44:41.825Z,12.38
2023-04-09T07:47:09.207Z,12.47
2023-04-09T07:49:37.288Z,12.50
2023-04-09T07:52:04.687Z,12.57
2023-04-09T07:54:32.024Z,12.66
2023-04-09T07:56:59.248Z,12.70
2023-04-09T07:59:27.737Z,12.74
2023-04-09T08:01:54.689Z,12.78
2023-04-09T08:04:22.275Z,12.82
2023-04-09T08:06:52.484Z,12.78
2023-04-09T08:09:19.771Z,12.84
2023-04-09T08:11:47.570Z,12.97
2023-04-09T08:14:15.438Z,12.98
2023-04-09T08:17:01.673Z,12.88
2023-04-09T08:19:28.623Z,12.88
2023-04-09T08:21:55.687Z,12.89
2023-04-09T08:24:22.634Z,13.04
2023-04-09T08:26:49.608Z,13.02
2023-04-09T08:29:16.645Z,13.07
2023-04-09T08:31:44.359Z,13.22
2023-04-09T08:34:12.099Z,13.17
2023-04-09T08:36:39.096Z,13.23
2023-04-09T08:39:06.218Z,13.31
2023-04-09T08:41:34.729Z,13.25
2023-04-09T08:44:02.136Z,13.33
2023-04-09T08:46:29.021Z,13.53
2023-04-09T08:48:56.331Z,13.59
2023-04-09T08:51:24.278Z,13.57
2023-04-09T08:53:58.346Z,13.67
2023-04-09T08:56:26.616Z,13.80
2023-04-09T08:58:54.154Z,14.01
2023-04-09T09:01:29.122Z,14.11
2023-04-09T09:03:59.044Z,14.01
2023-04-09T09:06:32.127Z,13.88
2023-04-09T09:09:06.788Z,13.75
2023-04-09T09:11:34.893Z,13.85
2023-04-09T09:14:03.616Z,13.86
2023-04-09T09:16:49.325Z,13.93
2023-04-09T09:19:25.549Z,14.01
2023-04-09T09:21:59.437Z,14.05
2023-04-09T09:24:45.870Z,14.11
2023-04-09T09:27:31.751Z,13.97
2023-04-09T09:29:59.089Z,13.99
2023-04-09T09:32:29.011Z,13.79
2023-04-09T09:35:06.682Z,13.84
2023-04-09T09:37:33.909Z,13.83
2023-04-09T09:40:01.624Z,13.92
2023-04-09T09:42:29.995Z,14.11
2023-04-09T09:44:57.477Z,14.22
2023-04-09T09:47:25.595Z,14.16
2023-04-09T09:49:52.736Z,14.41
2023-04-09T09:52:23.173Z,14.40
2023-04-09T09:54:52.950Z,14.38
2023-04-09T09:57:20.516Z,14.28
2023-04-09T09:59:51.558Z,14.26
2023-04-09T10:02:23.258Z,14.21
2023-04-09T10:04:53.895Z,14.20
2023-04-09T10:07:21.928Z,14.14
2023-04-09T10:09:53.403Z,14.19
2023-04-09T10:12:23.836Z,14.24
2023-04-09T10:14:52.019Z,14.18
2023-04-09T10:17:19.812Z,14.23
2023-04-09T10:19:49.704Z,14.19
2023-04-09T10:22:19.588Z,14.28
2023-04-09T10:24:47.291Z,14.34
2023-04-09T10:27:16.645Z,14.51
2023-04-09T10:29:45.572Z,14.47
2023-04-09T10:32:13.074Z,14.33
2023-04-09T10:34:40.949Z,14.19
2023-04-09T10:37:09.787Z,14.21
2023-04-09T10:39:39.668Z,14.29
2023-04-09T10:42:12.423Z,14.24
2023-04-09T10:44:41.704Z,14.18
2023-04-09T10:47:09.169Z,14.31
2023-04-09T10:49:44.775Z,14.19
2023-04-09T10:52:13.870Z,14.32
2023-04-09T10:54:45.650Z,14.36
2023-04-09T10:57:13.976Z,14.48
2023-04-09T10:59:42.194Z,14.64
2023-04-09T11:02:13.767Z,14.64
2023-04-09T11:04:57.639Z,14.77
2023-04-09T11:07:25.924Z,14.95
2023-04-09T11:09:53.331Z,14.98
2023-04-09T11:12:20.348Z,15.03
2023-04-09T11:14:47.185Z,15.05
2023-04-09T11:17:14.155Z,15.23
2023-04-09T11:19:41.134Z,15.39
2023-04-09T11:22:08.046Z,15.47
2023-04-09T11:24:44.450Z,15.50
2023-04-09T11:27:21.860Z,15.52
2023-04-09T11:29:49.017Z,15.81
2023-04-09T11:32:15.988Z,16.03
2023-04-09T11:34:42.802Z,16.34
2023-04-09T11:37:14.596Z,16.39
2023-04-09T11:39:43.986Z,16.61
2023-04-09T11:42:14.561Z,16.61
2023-04-09T11:44:41.650Z,16.44
2023-04-09T11:47:09.537Z,16.28
2023-04-09T11:49:36.497Z,16.10
2023-04-09T11:52:04.297Z,16.13
2023-04-09T11:54:34.557Z,16.02
2023-04-09T11:57:01.974Z,15.92
2023-04-09T11:59:28.924Z,15.78
2023-04-09T12:01:57.809Z,15.57
2023-04-09T12:04:25.170Z,15.22
2023-04-09T12:06:57.736Z,15.18
2023-04-09T12:09:25.837Z,15.07
2023-04-09T12:11:52.775Z,15.01
2023-04-09T12:14:21.870Z,14.89
2023-04-09T12:16:52.530Z,14.81
2023-04-09T12:19:20.686Z,14.75
2023-04-09T12:21:50.066Z,14.77
2023-04-09T12:24:17.662Z,14.80
2023-04-09T12:26:47.674Z,14.79
2023-04-09T12:29:34.026Z,14.83
2023-04-09T12:32:01.030Z,14.76
2023-04-09T12:34:27.865Z,14.88
2023-04-09T12:36:54.776Z,14.87
2023-04-09T12:39:21.672Z,14.90
2023-04-09T12:42:07.074Z,14.96
2023-04-09T12:44:33.952Z,15.07
2023-04-09T12:47:04.028Z,15.08
2023-04-09T12:49:51.341Z,15.09
2023-04-09T12:52:25.001Z,15.16
2023-04-09T12:54:52.554Z,15.21
2023-04-09T12:57:19.425Z,15.22
2023-04-09T12:59:46.406Z,15.27
2023-04-09T13:02:34.473Z,15.76
2023-04-09T13:05:24.168Z,16.10
2023-04-09T13:07:51.541Z,16.20
2023-04-09T13:10:38.377Z,16.10
2023-04-09T13:13:25.258Z,15.98
2023-04-09T13:16:00.703Z,15.87
2023-04-09T13:18:47.569Z,15.81
2023-04-09T13:21:18.971Z,15.74
2023-04-09T13:23:46.005Z,15.51
2023-04-09T13:26:12.856Z,15.32
2023-04-09T13:28:56.658Z,15.10
2023-04-09T13:31:23.627Z,15.07
2023-04-09T13:33:50.658Z,15.00
2023-04-09T13:36:17.495Z,14.99
2023-04-09T13:38:44.575Z,15.00
2023-04-09T13:41:36.193Z,14.96
2023-04-09T13:44:21.886Z,14.93
2023-04-09T13:47:07.809Z,14.94
2023-04-09T13:49:53.340Z,14.94
2023-04-09T13:52:38.799Z,14.90
2023-04-09T13:55:24.228Z,14.71
2023-04-09T13:58:28.686Z,14.59
2023-04-09T14:00:55.657Z,14.60
2023-04-09T14:03:22.558Z,14.54
2023-04-09T14:05:49.904Z,14.53
2023-04-09T14:08:16.871Z,14.50
2023-04-09T14:10:43.757Z,14.48
2023-04-09T14:13:12.336Z,14.42
2023-04-09T14:15:39.397Z,14.43
2023-04-09T14:18:06.635Z,14.38
2023-04-09T14:20:35.661Z,14.36
2023-04-09T14:23:02.601Z,14.31
2023-04-09T14:25:29.467Z,14.32
2023-04-09T14:27:57.067Z,14.24
2023-04-09T14:30:24.214Z,13.99
2023-04-09T14:32:51.163Z,13.91
2023-04-09T14:35:18.092Z,13.85
2023-04-09T14:37:47.054Z,13.70
2023-04-09T14:40:14.078Z,13.61
2023-04-09T14:42:41.780Z,13.48
2023-04-09T14:45:08.852Z,13.35
2023-04-09T14:47:35.803Z,13.21
2023-04-09T14:50:02.785Z,13.16
2023-04-09T14:52:30.673Z,13.16
2023-04-09T14:54:57.682Z,13.16
2023-04-09T14:57:24.865Z,13.20
2023-04-09T14:59:51.771Z,13.21
2023-04-09T15:02:18.942Z,13.27
2023-04-09T15:04:46.107Z,13.25
2023-04-09T15:07:13.170Z,13.22
2023-04-09T15:09:40.036Z,13.25
2023-04-09T15:12:08.829Z,13.29
2023-04-09T15:17:23.695Z,13.31
2023-04-09T15:22:38.787Z,13.29
2023-04-09T15:25:15.426Z,13.26
2023-04-09T15:27:44.808Z,13.29
2023-04-09T15:35:46.501Z,14.11
2023-04-09T15:38:15.901Z,14.36
2023-04-09T15:40:47.501Z,14.44
2023-04-09T15:46:01.367Z,14.29
2023-04-09T15:51:18.628Z,14.04
2023-04-09T15:56:37.672Z,13.82
2023-04-09T15:59:19.562Z,13.75
2023-04-09T16:12:49.308Z,13.53
2023-04-09T16:18:09.773Z,13.50
2023-04-09T16:20:40.639Z,13.51
2023-04-09T16:23:09.906Z,13.54
2023-04-09T16:28:23.902Z,13.51
2023-04-09T16:36:21.086Z,13.17
2023-04-09T16:41:35.695Z,12.69
2023-04-09T16:44:07.522Z,12.57
2023-04-09T16:49:24.713Z,12.57
2023-04-09T16:51:56.962Z,12.57
2023-04-09T16:54:25.743Z,12.55
2023-04-09T16:59:40.416Z,12.52
2023-04-09T17:02:14.880Z,12.50
2023-04-09T17:04:45.049Z,12.45
2023-04-09T17:20:50.992Z,12.02
2023-04-09T17:23:26.393Z,11.95
2023-04-09T17:26:01.865Z,11.96
2023-04-09T17:28:31.457Z,11.96
2023-04-09T17:31:03.286Z,11.97
2023-04-09T17:33:35.115Z,11.95
2023-04-09T17:36:11.450Z,11.97
2023-04-09T17:41:32.531Z,11.99
2023-04-09T17:44:00.881Z,11.97
2023-04-09T17:51:52.421Z,11.89
2023-04-09T17:57:06.768Z,11.92
2023-04-09T17:59:40.287Z,11.92
2023-04-09T18:02:13.031Z,11.90
2023-04-09T18:04:44.467Z,11.92
2023-04-09T18:07:13.208Z,11.89
2023-04-09T18:09:47.154Z,11.86
2023-04-09T18:12:15.668Z,11.82
2023-04-09T18:17:30.194Z,11.79
2023-04-09T18:20:06.583Z,11.75
2023-04-09T18:30:45.881Z,11.51
2023-04-09T18:33:12.731Z,11.50
2023-04-09T18:35:39.644Z,11.48
2023-04-09T18:38:06.439Z,11.37
2023-04-09T18:40:39.989Z,11.28
2023-04-09T18:43:06.814Z,11.27
2023-04-09T18:45:33.820Z,11.22
2023-04-09T18:48:00.806Z,11.15
2023-04-09T18:50:28.192Z,11.12
2023-04-09T18:52:55.112Z,11.09
2023-04-09T18:55:21.936Z,11.10
2023-04-09T18:57:54.875Z,11.15
2023-04-09T19:00:21.831Z,11.11
2023-04-09T19:02:49.972Z,11.12
2023-04-09T19:05:17.777Z,11.17
2023-04-09T19:07:44.732Z,11.17
2023-04-09T19:10:13.460Z,11.16
2023-04-09T19:12:47.529Z,11.20
2023-04-09T19:15:17.650Z,11.19
2023-04-09T19:17:45.259Z,11.18
2023-04-09T19:20:12.233Z,11.23
2023-04-09T19:22:39.202Z,11.18
2023-04-09T19:25:07.724Z,11.17
2023-04-09T19:27:34.661Z,11.11
2023-04-09T19:30:01.525Z,11.05
2023-04-09T19:32:28.825Z,11.00
2023-04-09T19:34:56.045Z,10.97
2023-04-09T19:37:27.454Z,10.89
2023-04-09T19:39:54.933Z,10.84
2023-04-09T19:42:21.805Z,10.81
2023-04-09T19:44:48.678Z,10.75
2023-04-09T19:47:15.722Z,10.68
2023-04-09T19:49:42.552Z,10.69
2023-04-09T19:52:09.385Z,10.67
2023-04-09T19:54:36.939Z,10.54
2023-04-09T19:57:05.202Z,10.50
2023-04-09T19:59:36.400Z,10.48
2023-04-09T20:02:03.514Z,10.45
2023-04-09T20:04:31.165Z,10.39
2023-04-09T20:06:58.160Z,10.29
2023-04-09T20:09:26.589Z,10.21
2023-04-09T20:11:54.129Z,10.14
2023-04-09T20:14:21.267Z,10.10
2023-04-09T20:16:48.142Z,10.08
2023-04-09T20:19:15.087Z,9.97
2023-04-09T20:21:43.695Z,9.93
2023-04-09T20:24:10.620Z,9.92
2023-04-09T20:26:37.658Z,9.88
2023-04-09T20:29:04.749Z,9.83
2023-04-09T20:31:31.798Z,9.86
2023-04-09T20:33:58.630Z,9.84
2023-04-09T20:36:25.815Z,9.84
2023-04-09T20:38:53.595Z,9.82
2023-04-09T20:41:20.552Z,9.78
2023-04-09T20:43:47.610Z,9.74
2023-04-09T20:46:14.550Z,9.72
2023-04-09T20:48:41.673Z,9.69
2023-04-09T20:51:10.160Z,9.63
2023-04-09T20:53:37.714Z,9.56
2023-04-09T20:56:06.131Z,9.50
2023-04-09T20:58:33.587Z,9.46
2023-04-09T21:01:05.144Z,9.46
2023-04-09T21:03:32.612Z,9.48
2023-04-09T21:05:59.580Z,9.55
2023-04-09T21:08:26.458Z,9.60
2023-04-09T21:10:53.318Z,9.60
2023-04-09T21:13:20.237Z,9.62
2023-04-09T21:15:47.053Z,9.60
2023-04-09T21:18:14.773Z,9.59
2023-04-09T21:20:49.015Z,9.59
2023-04-09T21:23:16.112Z,9.59
2023-04-09T21:25:43.038Z,9.59
2023-04-09T21:28:09.967Z,9.59
2023-04-09T21:30:38.029Z,9.58
2023-04-09T21:33:06.829Z,9.51
2023-04-09T21:35:33.985Z,9.52
2023-04-09T21:38:02.946Z,9.47
2023-04-09T21:40:30.244Z,9.44
2023-04-09T21:42:57.856Z,9.44
2023-04-09T21:45:24.982Z,9.38
2023-04-09T21:47:52.591Z,9.37
2023-04-09T21:50:19.817Z,9.41
2023-04-09T21:52:49.750Z,9.39
2023-04-09T21:55:16.618Z,9.41
2023-04-09T21:57:43.405Z,9.43
2023-04-09T22:00:11.200Z,9.38
2023-04-09T22:02:39.528Z,9.40
2023-04-09T22:05:06.777Z,9.41
2023-04-09T22:07:33.752Z,9.40
2023-04-09T22:10:00.549Z,9.40
2023-04-09T22:12:27.362Z,9.41
2023-04-09T22:14:54.345Z,9.41
2023-04-09T22:17:21.429Z,9.37
2023-04-09T22:19:48.333Z,9.37
2023-04-09T22:22:15.225Z,9.39
2023-04-09T22:24:42.846Z,9.39
2023-04-09T22:27:09.781Z,9.41
2023-04-09T22:29:37.201Z,9.45
2023-04-09T22:32:04.111Z,9.46
2023-04-09T22:34:30.910Z,9.48
2023-04-09T22:36:58.082Z,9.48
2023-04-09T22:39:25.037Z,9.49
2023-04-09T22:41:52.462Z,9.46
2023-04-09T22:44:19.514Z,9.51
2023-04-09T22:46:46.535Z,9.51
2023-04-09T22:49:13.523Z,9.53
2023-04-09T22:51:41.787Z,9.52
2023-04-09T22:54:09.949Z,9.51
2023-04-09T22:56:37.370Z,9.54
2023-04-09T22:59:04.857Z,9.58
2023-04-09T23:01:32.263Z,9.57
2023-04-09T23:03:59.428Z,9.57
2023-04-09T23:06:26.242Z,9.51
2023-04-09T23:08:53.406Z,9.51
2023-04-09T23:11:21.312Z,9.49
2023-04-09T23:13:49.137Z,9.51
2023-04-09T23:16:16.409Z,9.49
2023-04-09T23:18:43.790Z,9.40
2023-04-09T23:21:10.997Z,9.36
2023-04-09T23:23:39.207Z,9.36
2023-04-09T23:26:06.238Z,9.32
2023-04-09T23:28:35.136Z,9.36
2023-04-09T23:31:02.003Z,9.34
2023-04-09T23:33:28.826Z,9.31
2023-04-09T23:35:55.783Z,9.36
2023-04-09T23:38:22.757Z,9.47
2023-04-09T23:40:49.751Z,9.49
2023-04-09T23:43:16.634Z,9.53
2023-04-09T23:45:43.891Z,9.53
2023-04-09T23:48:11.513Z,9.59
2023-04-09T23:50:39.653Z,9.60
2023-04-09T23:53:06.837Z,9.60
2023-04-09T23:55:38.127Z,9.52
2023-04-09T23:58:05.414Z,9.49
